Terminal Aerodrome Forecast
Issued by NWS Mobile, AL

Home | Current Version | Previous Version | Text Only | Print | Product List | Glossary On
Versions: 1 2 3 4 5 6 7 8 9 10 11 12 13 14 15 16 17 18 19 20 21 22 23 24 25 26 27 28 29 30 31 32 33 34 35 36 37 38 39 40
000
FTUS44 KMOB 230522
TAFMOB
TAF
KMOB 230522Z 2306/2406 VRB03KT P6SM SCT250
     FM230900 00000KT 5SM BR SCT250
     FM231500 18005KT P6SM VCTS SCT030CB
      TEMPO 2318/2321 VRB10G30KT 2SM TSRA BKN030CB
     FM240000 VRB03KT P6SM SCT250=

USA.gov is the U.S. government's official web portal to all federal, state and local government web resources and services.